Time;durP1;ratioP1;P1;durP2;ratioP2;P2;SDS_P1;SDS_P2;PMS_P1;PMS_P2;Temp;Humidity;BMP_temperature;BMP_pressure;BME280_temperature;BME280_humidity;BME280_pressure;Samples;Min_cycle;Max_cycle;Signal;HPM_P1;HPM_P2
2022/12/23 00:00:39;;;;;;;57.50;21.40;;;11.20;99.90;;;;;;4995139;28;20025;-83
2022/12/23 00:03:04;;;;;;;51.92;21.42;;;11.20;99.90;;;;;;4978497;28;20566;-83
2022/12/23 00:05:30;;;;;;;53.80;21.35;;;11.20;99.90;;;;;;4978688;28;20459;-83
2022/12/23 00:07:56;;;;;;;50.72;21.85;;;11.20;99.90;;;;;;4978454;28;20081;-83
2022/12/23 00:10:22;;;;;;;62.92;22.52;;;11.20;99.90;;;;;;4995855;28;20039;-83
2022/12/23 00:15:31;;;;;;;51.45;21.48;;;11.20;99.90;;;;;;4994359;28;20041;-83
2022/12/23 00:17:57;;;;;;;53.83;21.25;;;11.20;99.90;;;;;;4978118;28;20030;-83
2022/12/23 00:20:22;;;;;;;55.78;22.92;;;11.20;99.90;;;;;;4994945;28;20025;-83
2022/12/23 00:23:06;;;;;;;49.45;21.35;;;11.20;99.90;;;;;;4994831;28;20057;-84
2022/12/23 00:25:40;;;;;;;62.40;23.30;;;11.20;99.90;;;;;;4980835;28;20134;-83
2022/12/23 00:28:18;;;;;;;44.78;20.67;;;11.20;99.90;;;;;;4979081;28;20026;-82
2022/12/23 00:30:49;;;;;;;54.53;22.02;;;11.20;99.90;;;;;;4994945;28;20022;-83
2022/12/23 00:33:24;;;;;;;53.90;21.95;;;11.20;99.90;;;;;;4994202;28;20022;-83
2022/12/23 00:35:51;;;;;;;49.15;20.70;;;11.20;99.90;;;;;;4993947;28;20022;-83
2022/12/23 00:42:52;;;;;;;52.30;23.27;;;11.20;99.90;;;;;;4977929;28;20117;-82
2022/12/23 00:43:49;;;;;;;50.85;22.08;;;11.20;99.90;;;;;;4993945;28;20041;-83
2022/12/23 00:46:15;;;;;;;58.25;22.30;;;11.20;99.90;;;;;;4993857;28;20365;-83
2022/12/23 00:51:28;;;;;;;55.60;23.98;;;11.20;99.90;;;;;;4995804;28;20041;-84
2022/12/23 00:53:53;;;;;;;60.03;22.00;;;11.20;99.90;;;;;;4977381;28;20014;-84
2022/12/23 00:56:19;;;;;;;62.67;22.50;;;11.20;99.90;;;;;;4977792;28;20347;-83
2022/12/23 00:58:45;;;;;;;54.92;21.52;;;11.30;99.90;;;;;;4977503;28;20351;-83
2022/12/23 01:06:39;;;;;;;50.70;19.88;;;11.30;99.90;;;;;;4994228;28;20046;-83
2022/12/23 01:09:04;;;;;;;53.85;21.85;;;11.30;99.90;;;;;;4994623;28;20454;-84
2022/12/23 01:11:30;;;;;;;54.78;19.85;;;11.30;99.90;;;;;;4979662;28;20068;-84
2022/12/23 01:13:57;;;;;;;45.22;19.45;;;11.30;99.90;;;;;;4989243;28;20082;-88
2022/12/23 01:16:22;;;;;;;51.92;19.98;;;11.30;99.90;;;;;;5001987;28;20023;-84
2022/12/23 01:18:48;;;;;;;44.97;18.27;;;11.30;99.90;;;;;;5015421;28;20034;-84
2022/12/23 01:21:14;;;;;;;52.50;19.08;;;11.30;99.90;;;;;;4980923;28;20075;-83
2022/12/23 01:23:39;;;;;;;61.05;19.52;;;11.30;99.90;;;;;;4990276;28;20030;-82
2022/12/23 01:26:07;;;;;;;44.70;17.42;;;11.30;99.90;;;;;;5017668;28;20039;-88
2022/12/23 01:28:33;;;;;;;43.22;16.83;;;11.30;99.90;;;;;;5018180;28;20050;-85
2022/12/23 01:31:00;;;;;;;50.92;18.10;;;11.30;99.90;;;;;;5018241;28;20045;-91
2022/12/23 01:33:27;;;;;;;50.08;18.33;;;11.30;99.90;;;;;;5017663;28;20014;-83
2022/12/23 01:36:02;;;;;;;60.92;18.83;;;11.30;99.90;;;;;;5017609;28;20034;-83
2022/12/23 01:38:29;;;;;;;49.20;17.85;;;11.30;99.90;;;;;;5017525;28;20022;-89
2022/12/23 01:40:55;;;;;;;45.60;17.60;;;11.30;99.90;;;;;;5017030;28;20027;-84
2022/12/23 01:43:21;;;;;;;55.60;17.75;;;11.30;99.90;;;;;;4982241;28;20096;-83
2022/12/23 01:45:47;;;;;;;43.28;16.95;;;11.20;99.90;;;;;;4979258;28;20450;-83
2022/12/23 01:48:20;;;;;;;51.92;17.50;;;11.30;99.90;;;;;;4994269;28;20405;-83
2022/12/23 01:50:49;;;;;;;48.47;18.25;;;11.20;99.90;;;;;;4995195;28;20046;-83
2022/12/23 01:53:17;;;;;;;48.47;18.45;;;11.20;99.90;;;;;;4993633;28;20046;-83
2022/12/23 01:56:05;;;;;;;61.30;19.98;;;11.20;99.90;;;;;;4993718;28;20023;-83
2022/12/23 01:58:36;;;;;;;68.50;19.40;;;11.20;99.90;;;;;;4993823;28;20113;-83
2022/12/23 02:03:52;;;;;;;52.95;18.50;;;11.20;99.90;;;;;;4994670;28;20033;-84
2022/12/23 02:09:17;;;;;;;60.63;22.02;;;11.20;99.90;;;;;;4998114;28;20052;-84
2022/12/23 02:12:25;;;;;;;60.38;20.67;;;11.20;99.90;;;;;;4997154;28;20061;-84
2022/12/23 02:18:04;;;;;;;53.55;20.95;;;11.20;99.90;;;;;;4997826;28;20065;-83
2022/12/23 02:20:48;;;;;;;55.30;20.00;;;11.20;99.90;;;;;;4996871;28;20026;-83
2022/12/23 02:23:51;;;;;;;66.72;21.15;;;11.20;99.90;;;;;;4997749;28;20056;-83
2022/12/23 02:26:54;;;;;;;56.25;20.33;;;11.20;99.90;;;;;;4996207;28;20019;-85
2022/12/23 02:29:45;;;;;;;50.92;19.30;;;11.20;99.90;;;;;;4996172;28;20026;-84
2022/12/23 02:32:22;;;;;;;67.20;20.97;;;11.20;99.90;;;;;;4996346;28;20049;-84
2022/12/23 02:35:22;;;;;;;70.80;21.55;;;11.20;99.90;;;;;;4997734;28;20454;-84
2022/12/23 02:38:06;;;;;;;61.70;19.48;;;11.20;99.90;;;;;;4997407;28;20363;-84
2022/12/23 02:40:38;;;;;;;67.18;21.17;;;11.20;99.90;;;;;;4996104;28;20049;-84
2022/12/23 02:43:25;;;;;;;52.75;20.88;;;11.20;99.90;;;;;;4996580;28;20022;-84
2022/12/23 02:46:26;;;;;;;63.25;21.00;;;11.20;99.90;;;;;;4997151;28;20022;-84
2022/12/23 02:49:15;;;;;;;89.47;23.70;;;11.20;99.90;;;;;;4995974;28;20029;-83
2022/12/23 02:51:49;;;;;;;67.05;21.95;;;11.20;99.90;;;;;;4994110;28;20029;-84
2022/12/23 02:54:20;;;;;;;61.53;21.80;;;11.20;99.90;;;;;;4976296;28;20105;-84
2022/12/23 02:56:49;;;;;;;;;;;11.20;99.90;;;;;;4978102;28;20129;-84
2022/12/23 02:59:21;;;;;;;68.95;21.40;;;11.20;99.90;;;;;;4976336;28;19914;-84
2022/12/23 03:01:50;;;;;;;82.65;23.15;;;11.20;99.90;;;;;;4976492;28;20057;-84
2022/12/23 03:04:15;;;;;;;79.95;25.20;;;11.20;99.90;;;;;;4992414;28;20030;-84
2022/12/23 03:06:44;;;;;;;95.80;24.50;;;11.20;99.90;;;;;;4980047;28;20521;-84
2022/12/23 03:09:22;;;;;;;95.75;25.92;;;11.20;99.90;;;;;;4999522;28;20458;-87
2022/12/23 03:12:10;;;;;;;100.40;24.67;;;11.20;99.90;;;;;;4996682;28;20022;-84
2022/12/23 03:15:04;;;;;;;80.25;25.80;;;11.20;99.90;;;;;;4995923;28;20057;-84
2022/12/23 03:17:38;;;;;;;81.43;24.48;;;11.20;99.90;;;;;;4994916;28;20018;-84
2022/12/23 03:20:22;;;;;;;100.18;25.75;;;11.20;99.90;;;;;;4996344;28;20030;-84
2022/12/23 03:23:00;;;;;;;92.78;25.23;;;11.20;99.90;;;;;;4996725;28;20367;-84
2022/12/23 03:25:41;;;;;;;98.25;24.50;;;11.20;99.90;;;;;;4994981;28;20117;-84
2022/12/23 03:28:18;;;;;;;168.60;30.30;;;11.20;99.90;;;;;;4995744;28;20026;-85
2022/12/23 03:30:49;;;;;;;98.00;25.55;;;11.20;99.90;;;;;;4996644;28;20030;-83
2022/12/23 03:33:18;;;;;;;91.43;25.13;;;11.20;99.90;;;;;;4995082;28;20561;-84
2022/12/23 03:35:54;;;;;;;85.85;23.98;;;11.20;99.90;;;;;;4995171;28;20026;-83
2022/12/23 03:38:21;;;;;;;78.80;24.15;;;11.20;99.90;;;;;;4994689;28;20162;-84
2022/12/23 03:40:53;;;;;;;78.55;21.88;;;11.20;99.90;;;;;;4994467;28;20022;-84
2022/12/23 03:43:30;;;;;;;52.30;19.17;;;11.30;99.90;;;;;;4994226;28;20050;-84
2022/12/23 03:46:07;;;;;;;73.60;18.38;;;11.30;99.90;;;;;;4996181;28;20041;-83
2022/12/23 03:48:41;;;;;;;70.43;18.40;;;11.20;99.90;;;;;;4996213;28;20026;-82
2022/12/23 03:51:19;;;;;;;49.50;15.57;;;11.30;99.90;;;;;;4994721;28;20085;-83
2022/12/23 03:53:50;;;;;;;40.53;14.93;;;11.30;99.90;;;;;;4994548;28;20019;-83
2022/12/23 03:56:21;;;;;;;42.42;14.23;;;11.30;99.90;;;;;;4994535;28;20030;-85
2022/12/23 03:58:57;;;;;;;62.25;16.15;;;11.20;99.90;;;;;;4994450;28;20022;-84
2022/12/23 04:01:33;;;;;;;61.63;16.58;;;11.20;99.90;;;;;;4994162;28;20443;-83
2022/12/23 04:04:11;;;;;;;42.55;14.63;;;11.20;99.90;;;;;;4995078;28;20026;-84
2022/12/23 04:07:07;;;;;;;42.72;14.18;;;11.20;99.90;;;;;;4997402;28;20358;-83
2022/12/23 04:09:34;;;;;;;33.20;12.55;;;11.20;99.90;;;;;;5012406;28;20056;-85
2022/12/23 04:12:00;;;;;;;30.40;11.27;;;11.20;99.90;;;;;;5014077;28;20023;-83
2022/12/23 04:14:26;;;;;;;37.55;11.75;;;11.20;99.90;;;;;;4996769;28;20033;-83
2022/12/23 04:16:55;;;;;;;27.77;10.98;;;11.10;99.90;;;;;;4978521;28;20022;-83
2022/12/23 04:19:21;;;;;;;29.52;11.45;;;11.10;99.90;;;;;;4994542;28;20473;-84
2022/12/23 04:21:46;;;;;;;40.03;13.45;;;11.20;99.90;;;;;;4978631;28;20022;-83
2022/12/23 04:24:12;;;;;;;29.90;12.73;;;11.10;99.90;;;;;;4995574;28;20019;-83
2022/12/23 04:26:38;;;;;;;45.28;13.13;;;11.10;99.90;;;;;;4993899;28;20026;-83
2022/12/23 04:29:04;;;;;;;39.63;13.15;;;11.10;99.90;;;;;;4994568;28;20033;-86
2022/12/23 04:31:30;;;;;;;43.03;13.85;;;11.10;99.90;;;;;;4977878;28;20030;-83
2022/12/23 04:33:56;;;;;;;25.73;11.70;;;11.10;99.90;;;;;;4977834;28;20126;-83
2022/12/23 04:36:22;;;;;;;40.80;13.20;;;11.10;99.90;;;;;;4977992;28;20533;-89
2022/12/23 04:38:48;;;;;;;44.65;13.88;;;11.10;99.90;;;;;;4977980;28;20030;-83
2022/12/23 04:41:13;;;;;;;31.67;13.15;;;11.00;99.90;;;;;;4994031;28;20078;-83
2022/12/23 04:43:39;;;;;;;38.00;12.95;;;11.10;99.90;;;;;;4977522;28;20074;-84
2022/12/23 04:46:05;;;;;;;32.45;12.90;;;11.10;99.90;;;;;;4993815;28;20219;-83
2022/12/23 04:48:30;;;;;;;50.30;15.57;;;11.10;99.90;;;;;;4994085;28;20033;-83
2022/12/23 04:50:56;;;;;;;52.33;15.68;;;11.10;99.90;;;;;;4993738;28;20034;-83
2022/12/23 04:53:22;;;;;;;64.05;16.90;;;11.10;99.90;;;;;;4993851;28;20020;-82
2022/12/23 04:55:51;;;;;;;75.45;18.45;;;11.00;99.90;;;;;;4993566;28;20027;-83
2022/12/23 04:58:16;;;;;;;62.20;17.90;;;11.00;99.90;;;;;;4993634;28;20121;-83
2022/12/23 05:00:42;;;;;;;46.72;16.58;;;11.00;99.90;;;;;;4977645;28;20054;-82
2022/12/23 05:03:08;;;;;;;49.58;17.27;;;11.00;99.90;;;;;;4995869;28;20367;-82
2022/12/23 05:05:34;;;;;;;52.92;16.27;;;11.00;99.90;;;;;;4979437;28;20366;-83
2022/12/23 05:08:04;;;;;;;51.03;16.65;;;11.00;99.90;;;;;;4983556;28;20038;-83
2022/12/23 05:10:30;;;;;;;47.73;16.20;;;11.00;99.90;;;;;;5018206;28;20023;-90
2022/12/23 05:12:58;;;;;;;64.63;18.90;;;11.00;99.90;;;;;;5001497;28;20018;-82
2022/12/23 05:15:23;;;;;;;60.38;18.17;;;11.00;99.90;;;;;;5001763;28;20081;-81
2022/12/23 05:17:49;;;;;;;57.03;17.40;;;10.90;99.90;;;;;;5001005;28;20034;-84
2022/12/23 05:20:15;;;;;;;53.90;16.38;;;10.90;99.90;;;;;;5000651;28;20173;-83
2022/12/23 05:22:48;;;;;;;71.78;18.42;;;11.00;99.90;;;;;;5016665;28;20038;-83
2022/12/23 05:25:14;;;;;;;55.38;17.15;;;11.00;99.90;;;;;;5015377;28;20089;-84
2022/12/23 05:27:43;;;;;;;51.50;16.50;;;10.90;99.90;;;;;;4985240;28;20031;-83
2022/12/23 05:30:09;;;;;;;48.05;17.75;;;10.90;99.90;;;;;;4978655;28;20362;-83
2022/12/23 05:32:35;;;;;;;41.60;16.58;;;10.90;99.90;;;;;;4993635;28;20037;-84
2022/12/23 05:35:07;;;;;;;44.90;16.20;;;10.90;99.90;;;;;;4993962;28;20022;-83
2022/12/23 05:37:32;;;;;;;39.58;15.02;;;10.90;99.90;;;;;;4995069;28;20026;-85
2022/12/23 05:39:58;;;;;;;49.83;16.45;;;10.90;99.90;;;;;;4993954;28;20463;-84
2022/12/23 05:42:24;;;;;;;40.08;14.75;;;10.90;99.90;;;;;;4997716;28;20070;-84
2022/12/23 05:44:49;;;;;;;54.50;15.23;;;10.90;99.90;;;;;;4981353;28;20454;-84
2022/12/23 05:47:18;;;;;;;41.53;14.40;;;10.90;99.90;;;;;;4997319;28;20128;-85
2022/12/23 05:49:43;;;;;;;40.08;14.30;;;10.90;99.90;;;;;;4997275;28;20030;-85
2022/12/23 05:52:09;;;;;;;41.03;13.98;;;10.90;99.90;;;;;;4997142;28;20023;-84
2022/12/23 05:54:35;;;;;;;36.70;14.35;;;10.90;99.90;;;;;;4997148;28;20498;-85
2022/12/23 05:57:00;;;;;;;39.88;13.80;;;10.90;99.90;;;;;;4980880;28;20034;-84
2022/12/23 05:59:26;;;;;;;36.58;12.85;;;10.80;99.90;;;;;;4997086;28;20050;-85
2022/12/23 06:01:52;;;;;;;32.63;14.30;;;10.80;99.90;;;;;;4977276;28;20019;-85
2022/12/23 06:04:17;;;;;;;42.17;14.25;;;10.80;99.90;;;;;;4986079;28;20102;-84
2022/12/23 06:06:43;;;;;;;40.47;13.13;;;10.80;99.90;;;;;;4993802;28;20451;-86
2022/12/23 06:09:09;;;;;;;35.38;13.63;;;10.70;99.90;;;;;;4993667;28;20031;-85
2022/12/23 06:11:35;;;;;;;39.67;13.93;;;10.70;99.90;;;;;;5008319;28;20059;-87
2022/12/23 06:14:01;;;;;;;33.83;13.63;;;10.70;99.90;;;;;;4996360;28;20014;-85
2022/12/23 06:16:27;;;;;;;42.15;14.38;;;10.70;99.90;;;;;;4992208;28;20030;-87
2022/12/23 06:18:55;;;;;;;40.20;13.73;;;10.70;99.90;;;;;;4980156;28;20466;-85
2022/12/23 06:21:21;;;;;;;38.50;13.57;;;10.70;99.90;;;;;;4996784;28;20018;-85
2022/12/23 06:23:46;;;;;;;32.08;12.75;;;10.70;99.90;;;;;;4994692;28;20458;-85
2022/12/23 06:26:12;;;;;;;31.08;12.45;;;10.70;99.90;;;;;;4980427;28;20026;-85
2022/12/23 06:28:38;;;;;;;35.72;12.63;;;10.70;99.90;;;;;;4980157;28;20080;-83
2022/12/23 06:31:04;;;;;;;30.13;12.30;;;10.70;99.90;;;;;;4959737;28;20080;-82
2022/12/23 06:33:29;;;;;;;26.63;11.45;;;10.70;99.90;;;;;;4962424;28;20023;-82
2022/12/23 06:35:55;;;;;;;33.08;12.63;;;10.70;99.90;;;;;;4979565;28;20031;-84
2022/12/23 06:38:20;;;;;;;37.63;12.90;;;10.70;99.90;;;;;;5005608;28;20038;-86
2022/12/23 06:40:49;;;;;;;39.20;14.18;;;10.70;99.90;;;;;;4987076;28;20427;-85
2022/12/23 06:43:15;;;;;;;26.23;11.73;;;10.70;99.90;;;;;;4998905;28;20090;-85
2022/12/23 06:45:44;;;;;;;31.92;12.77;;;10.70;99.90;;;;;;4999743;28;20323;-85
2022/12/23 06:48:10;;;;;;;32.17;12.13;;;10.70;99.90;;;;;;4996199;28;20084;-84
2022/12/23 06:50:35;;;;;;;27.77;11.07;;;10.70;99.90;;;;;;4995591;28;20026;-85
2022/12/23 06:53:01;;;;;;;24.48;11.02;;;10.70;99.90;;;;;;4995236;28;20363;-85
2022/12/23 06:55:27;;;;;;;31.30;12.20;;;10.70;99.90;;;;;;4979711;28;20148;-85
2022/12/23 06:57:52;;;;;;;29.75;12.05;;;10.70;99.90;;;;;;4979929;28;20030;-85
2022/12/23 07:00:19;;;;;;;58.60;15.68;;;10.70;99.90;;;;;;4995880;28;20029;-85
2022/12/23 07:02:44;;;;;;;37.83;13.73;;;10.70;99.90;;;;;;4979291;28;20018;-85
2022/12/23 07:05:10;;;;;;;40.67;14.05;;;10.70;99.90;;;;;;4980046;28;20034;-84
2022/12/23 07:07:36;;;;;;;38.42;13.88;;;10.70;99.90;;;;;;4979156;28;20101;-85
2022/12/23 07:10:01;;;;;;;32.58;12.20;;;10.70;99.90;;;;;;4995663;28;20033;-85
2022/12/23 07:12:27;;;;;;;28.92;12.23;;;10.70;99.90;;;;;;4995394;28;20015;-85
2022/12/23 07:14:53;;;;;;;26.50;12.30;;;10.70;99.90;;;;;;4995587;28;20021;-85
2022/12/23 07:17:18;;;;;;;49.28;14.85;;;10.70;99.90;;;;;;4979044;28;20121;-82
2022/12/23 07:19:44;;;;;;;42.88;13.27;;;10.70;99.90;;;;;;4978980;28;20474;-84
2022/12/23 07:22:10;;;;;;;29.80;11.48;;;10.70;99.90;;;;;;4998145;28;20022;-83
2022/12/23 07:24:36;;;;;;;33.38;12.63;;;10.70;99.90;;;;;;4978828;28;20030;-83
2022/12/23 07:27:02;;;;;;;30.00;12.13;;;10.70;99.90;;;;;;4980655;28;20023;-85
2022/12/23 07:29:28;;;;;;;46.95;13.68;;;10.70;99.90;;;;;;4998383;28;20097;-83
2022/12/23 07:31:53;;;;;;;34.28;12.55;;;10.70;99.90;;;;;;4980306;28;20058;-83
2022/12/23 07:34:19;;;;;;;66.43;16.45;;;10.70;99.90;;;;;;4981151;28;20022;-82
2022/12/23 07:36:47;;;;;;;59.78;15.70;;;10.70;99.90;;;;;;4981617;28;20045;-84
2022/12/23 07:39:13;;;;;;;59.53;16.40;;;10.70;99.90;;;;;;4981865;28;20125;-83
2022/12/23 07:41:38;;;;;;;30.20;12.30;;;10.70;99.90;;;;;;4980416;28;20489;-83
2022/12/23 07:44:04;;;;;;;29.73;12.52;;;10.70;99.90;;;;;;4995159;28;20407;-83
2022/12/23 07:46:30;;;;;;;26.00;11.60;;;10.70;99.90;;;;;;4995061;28;20422;-83
2022/12/23 07:48:56;;;;;;;32.83;13.00;;;10.70;99.90;;;;;;4976503;28;20030;-83
2022/12/23 07:51:21;;;;;;;27.33;12.77;;;10.70;99.90;;;;;;4977835;28;20146;-84
2022/12/23 07:53:50;;;;;;;28.52;11.73;;;10.70;99.90;;;;;;4993404;28;20332;-83
2022/12/23 07:56:17;;;;;;;27.95;12.43;;;10.60;99.90;;;;;;4994008;28;20037;-83
2022/12/23 07:58:42;;;;;;;29.35;12.27;;;10.70;99.90;;;;;;4994749;28;20114;-84
2022/12/23 08:01:08;;;;;;;33.22;13.23;;;10.60;99.90;;;;;;4994504;28;20081;-84
2022/12/23 08:03:36;;;;;;;61.45;16.50;;;10.60;99.90;;;;;;4994788;28;20030;-83
2022/12/23 08:06:06;;;;;;;34.67;12.90;;;10.70;99.90;;;;;;4994278;28;20030;-84
2022/12/23 08:08:32;;;;;;;85.13;16.92;;;10.70;99.90;;;;;;5011062;28;20064;-83
2022/12/23 08:11:01;;;;;;;51.20;15.02;;;10.70;99.90;;;;;;5010908;28;20030;-84
2022/12/23 08:13:27;;;;;;;39.83;14.23;;;10.70;99.90;;;;;;4988950;28;20022;-83
2022/12/23 08:15:57;;;;;;;29.77;12.40;;;10.70;99.90;;;;;;4985241;28;20026;-85
2022/12/23 08:18:28;;;;;;;41.60;14.57;;;10.70;99.90;;;;;;4988384;28;20031;-85
2022/12/23 08:21:02;;;;;;;32.10;13.32;;;10.70;99.90;;;;;;4995480;28;20454;-86
2022/12/23 08:23:29;;;;;;;33.17;13.50;;;10.70;99.90;;;;;;4994247;28;20116;-84
2022/12/23 08:26:10;;;;;;;41.03;15.60;;;10.70;99.90;;;;;;4994310;28;20022;-84
2022/12/23 08:28:36;;;;;;;;;;;10.70;99.90;;;;;;4992844;28;20113;-87
2022/12/23 08:31:07;;;;;;;31.40;12.52;;;10.70;99.90;;;;;;4999665;28;19909;-85
2022/12/23 08:33:35;;;;;;;;;;;10.70;99.90;;;;;;4970753;28;20023;-86
2022/12/23 08:36:01;;;;;;;33.55;12.95;;;10.60;99.90;;;;;;4992207;28;20013;-87
2022/12/23 08:38:26;;;;;;;27.65;13.52;;;10.60;99.90;;;;;;4981782;28;20114;-86
2022/12/23 08:40:52;;;;;;;42.63;14.23;;;10.60;99.90;;;;;;4972512;28;20133;-86
2022/12/23 08:43:18;;;;;;;38.70;14.52;;;10.60;99.90;;;;;;4967524;28;20094;-84
2022/12/23 08:45:44;;;;;;;55.35;17.77;;;10.60;99.90;;;;;;4989861;28;20031;-84
2022/12/23 08:48:09;;;;;;;45.63;17.67;;;10.60;99.90;;;;;;4969822;28;20041;-86
2022/12/23 08:50:43;;;;;;;53.60;18.92;;;10.60;99.90;;;;;;4966989;28;20029;-84
2022/12/23 08:53:10;;;;;;;94.55;21.88;;;10.60;99.90;;;;;;4983127;28;20023;-84
2022/12/23 08:55:46;;;;;;;51.72;18.27;;;10.60;99.90;;;;;;4991816;28;20026;-85
2022/12/23 08:58:14;;;;;;;53.13;18.17;;;10.60;99.90;;;;;;5003245;28;20034;-85
2022/12/23 09:00:40;;;;;;;65.32;19.13;;;10.60;99.90;;;;;;5001627;28;20007;-88
2022/12/23 09:03:06;;;;;;;68.65;18.92;;;10.60;99.90;;;;;;5016212;28;20054;-88
2022/12/23 09:05:32;;;;;;;78.88;19.73;;;10.60;99.90;;;;;;4995707;28;20011;-87
2022/12/23 09:07:59;;;;;;;75.30;20.33;;;10.60;99.90;;;;;;4997088;28;20034;-88
2022/12/23 09:10:25;;;;;;;114.93;22.55;;;10.60;99.90;;;;;;5010835;28;20041;-89
2022/12/23 09:12:51;;;;;;;76.93;19.70;;;10.50;99.90;;;;;;4980536;28;20061;-85
2022/12/23 09:15:17;;;;;;;72.35;18.65;;;10.50;99.90;;;;;;4988845;28;20458;-84
2022/12/23 09:17:43;;;;;;;95.47;22.35;;;10.50;99.90;;;;;;4982094;28;20149;-84
2022/12/23 09:20:09;;;;;;;84.65;21.00;;;10.60;99.90;;;;;;4984601;28;20096;-85
2022/12/23 09:22:35;;;;;;;88.65;21.60;;;10.50;99.90;;;;;;4982920;28;20034;-84
2022/12/23 09:25:00;;;;;;;82.47;20.65;;;10.60;99.90;;;;;;4973808;28;20030;-85
2022/12/23 09:27:26;;;;;;;92.07;22.63;;;10.60;99.90;;;;;;4989215;28;20031;-84
2022/12/23 09:29:52;;;;;;;94.53;22.73;;;10.50;99.90;;;;;;4971898;28;20038;-85
2022/12/23 09:32:18;;;;;;;114.75;25.13;;;10.50;99.90;;;;;;4971564;28;20029;-85
2022/12/23 09:34:44;;;;;;;119.38;26.73;;;10.50;99.90;;;;;;4976811;28;20034;-85
2022/12/23 09:37:12;;;;;;;125.63;26.27;;;10.50;99.90;;;;;;4972180;28;20023;-85
2022/12/23 09:39:38;;;;;;;145.85;27.40;;;10.50;99.90;;;;;;4960387;28;20046;-86
2022/12/23 09:42:19;;;;;;;124.30;25.67;;;10.50;99.90;;;;;;4979569;28;20046;-86
2022/12/23 09:45:17;;;;;;;125.25;27.45;;;10.60;99.90;;;;;;5006048;28;20030;-85
2022/12/23 09:47:43;;;;;;;137.85;26.77;;;10.50;99.90;;;;;;4973530;28;20026;-85
2022/12/23 09:50:30;;;;;;;181.05;26.80;;;10.50;99.90;;;;;;4987373;28;20022;-86
2022/12/23 09:53:04;;;;;;;111.53;22.90;;;10.50;99.90;;;;;;4982366;28;20026;-84
2022/12/23 09:56:01;;;;;;;114.10;23.65;;;10.50;99.90;;;;;;4988214;28;20026;-85
2022/12/23 09:58:30;;;;;;;107.68;23.42;;;10.60;99.90;;;;;;4977359;28;20121;-84
2022/12/23 10:01:37;;;;;;;100.50;24.70;;;10.60;99.90;;;;;;4986706;28;20044;-85
2022/12/23 10:04:35;;;;;;;103.90;22.55;;;10.50;99.90;;;;;;5003496;28;20118;-85
2022/12/23 10:07:03;;;;;;;112.70;25.05;;;10.60;99.90;;;;;;4983969;28;20122;-85
2022/12/23 10:09:37;;;;;;;128.05;24.63;;;10.60;99.90;;;;;;4979893;28;20026;-85
2022/12/23 10:12:30;;;;;;;110.07;22.83;;;10.60;99.90;;;;;;4987914;28;20030;-86
2022/12/23 10:15:00;;;;;;;107.82;21.17;;;10.60;99.90;;;;;;4995267;28;20059;-86
2022/12/23 10:17:40;;;;;;;80.30;20.92;;;10.60;99.90;;;;;;4984573;28;20066;-86
2022/12/23 10:20:13;;;;;;;110.03;22.47;;;10.60;99.90;;;;;;4979765;28;20093;-85
2022/12/23 10:22:43;;;;;;;124.68;22.60;;;10.60;99.90;;;;;;4987605;28;20417;-85
2022/12/23 10:25:18;;;;;;;83.82;23.17;;;10.60;99.90;;;;;;4981266;28;20415;-85
2022/12/23 10:27:44;;;;;;;89.20;22.77;;;10.70;99.90;;;;;;4990951;28;20022;-87
2022/12/23 10:30:19;;;;;;;90.13;21.60;;;10.60;99.90;;;;;;4989925;28;20026;-86
2022/12/23 10:33:07;;;;;;;104.43;22.35;;;10.70;99.90;;;;;;4986895;28;20026;-87
2022/12/23 10:35:36;;;;;;;114.05;21.40;;;10.70;99.90;;;;;;4985705;28;20072;-86
2022/12/23 10:38:20;;;;;;;114.15;22.52;;;10.60;99.90;;;;;;4988468;28;20470;-84
2022/12/23 10:40:54;;;;;;;117.88;23.30;;;10.60;99.90;;;;;;4986412;28;20057;-84
2022/12/23 10:43:40;;;;;;;110.45;22.90;;;10.60;99.90;;;;;;4986687;28;20552;-85
2022/12/23 10:46:40;;;;;;;135.85;24.42;;;10.60;99.90;;;;;;4984031;28;20455;-86
2022/12/23 10:49:12;;;;;;;98.50;21.52;;;10.60;99.90;;;;;;4981964;28;20050;-86
2022/12/23 10:51:48;;;;;;;115.45;23.23;;;10.60;99.90;;;;;;4983445;28;20371;-86
2022/12/23 10:54:27;;;;;;;114.45;26.33;;;10.60;99.90;;;;;;5009692;28;20031;-87
2022/12/23 10:56:54;;;;;;;115.25;25.98;;;10.60;99.90;;;;;;4991109;28;20041;-86
2022/12/23 10:59:30;;;;;;;127.38;26.17;;;10.60;99.90;;;;;;4970396;28;20060;-86
2022/12/23 11:02:36;;;;;;;146.75;29.33;;;10.60;99.90;;;;;;4988421;28;20019;-86
2022/12/23 11:05:02;;;;;;;132.10;27.30;;;10.60;99.90;;;;;;4985958;28;20046;-85
2022/12/23 11:07:51;;;;;;;131.93;29.23;;;10.60;99.90;;;;;;4981013;28;20174;-86
2022/12/23 11:10:27;;;;;;;119.40;27.70;;;10.60;99.90;;;;;;4988974;28;20093;-84
2022/12/23 11:12:59;;;;;;;133.38;29.52;;;10.70;99.90;;;;;;4987839;28;20019;-85
2022/12/23 11:15:27;;;;;;;145.48;30.63;;;10.60;99.90;;;;;;4997449;28;20085;-85
2022/12/23 11:18:13;;;;;;;142.40;32.75;;;10.60;99.90;;;;;;4990026;28;20068;-85
2022/12/23 11:20:45;;;;;;;149.27;33.38;;;10.60;99.90;;;;;;4999847;28;20031;-85
2022/12/23 11:23:30;;;;;;;161.15;35.15;;;10.60;99.90;;;;;;4995311;28;20023;-87
2022/12/23 11:26:10;;;;;;;167.98;36.00;;;10.60;99.90;;;;;;5013423;28;20038;-86
2022/12/23 11:28:39;;;;;;;134.13;33.95;;;10.60;99.90;;;;;;5013153;28;20052;-86
2022/12/23 11:31:33;;;;;;;135.45;33.08;;;10.60;99.90;;;;;;5012855;28;20013;-83
2022/12/23 11:34:13;;;;;;;143.65;33.08;;;10.60;99.90;;;;;;4990999;28;20026;-85
2022/12/23 11:36:49;;;;;;;;;;;;;;;;;;;;;
2022/12/23 11:39:31;;;;;;;131.82;33.03;;;10.70;99.90;;;;;;4984083;28;20027;-87
2022/12/23 11:42:17;;;;;;;153.73;35.13;;;10.70;99.90;;;;;;4988588;28;20070;-87
2022/12/23 11:44:44;;;;;;;132.25;34.05;;;10.60;99.90;;;;;;4985505;28;20023;-86
2022/12/23 11:47:43;;;;;;;139.73;32.58;;;10.70;99.90;;;;;;4989448;28;20105;-89
2022/12/23 11:50:32;;;;;;;140.23;32.38;;;10.70;99.90;;;;;;4973492;28;20019;-87
2022/12/23 11:53:24;;;;;;;131.32;31.65;;;10.70;99.90;;;;;;4983745;28;20146;-86
2022/12/23 11:56:01;;;;;;;126.72;30.30;;;10.70;99.90;;;;;;4990797;28;20161;-86
2022/12/23 11:58:35;;;;;;;132.43;32.20;;;10.70;99.90;;;;;;4993063;28;20050;-87
2022/12/23 12:01:14;;;;;;;108.13;29.38;;;10.70;99.90;;;;;;4979859;28;20076;-86
2022/12/23 12:03:57;;;;;;;128.63;30.73;;;10.70;99.90;;;;;;4984702;28;20484;-86
2022/12/23 12:06:27;;;;;;;121.13;29.05;;;10.70;99.90;;;;;;4980487;28;20520;-86
2022/12/23 12:08:56;;;;;;;125.90;31.17;;;10.70;99.90;;;;;;5005927;28;20034;-86
2022/12/23 12:11:46;;;;;;;96.70;27.45;;;10.70;99.90;;;;;;4992126;28;20029;-87
2022/12/23 12:14:28;;;;;;;108.53;28.02;;;10.70;99.90;;;;;;4989967;28;20459;-85
2022/12/23 12:17:01;;;;;;;95.18;27.25;;;10.70;99.90;;;;;;4992335;28;20023;-86
2022/12/23 12:19:50;;;;;;;95.30;27.90;;;10.70;99.90;;;;;;4991877;28;20046;-86
2022/12/23 12:22:32;;;;;;;103.57;29.27;;;10.70;99.90;;;;;;4991993;28;20027;-86
2022/12/23 12:25:04;;;;;;;97.70;26.98;;;10.70;99.90;;;;;;4981289;28;20026;-86
2022/12/23 12:27:39;;;;;;;93.03;27.08;;;10.80;99.90;;;;;;4988624;28;20113;-87
2022/12/23 12:30:16;;;;;;;97.20;26.00;;;10.70;99.90;;;;;;4974775;28;20027;-87
2022/12/23 12:32:57;;;;;;;77.97;24.85;;;10.80;99.90;;;;;;4989238;28;20098;-85
2022/12/23 12:35:48;;;;;;;104.60;27.73;;;10.80;99.90;;;;;;4985327;28;20037;-86
2022/12/23 12:38:41;;;;;;;98.43;25.17;;;10.80;99.90;;;;;;4980717;28;20072;-86
2022/12/23 12:41:36;;;;;;;107.82;28.75;;;10.80;99.90;;;;;;4996042;28;20065;-87
2022/12/23 12:44:47;;;;;;;94.22;25.27;;;10.80;99.90;;;;;;5009191;28;20069;-92
2022/12/23 12:47:36;;;;;;;81.25;25.73;;;10.80;99.90;;;;;;5010940;28;20026;-86
2022/12/23 12:50:14;;;;;;;104.93;27.58;;;10.80;99.90;;;;;;5011021;28;20019;-88
2022/12/23 12:52:43;;;;;;;123.90;30.55;;;10.70;99.90;;;;;;5002673;28;20019;-88
2022/12/23 12:55:16;;;;;;;110.55;26.85;;;10.80;99.90;;;;;;5007443;28;20094;-89
2022/12/23 12:57:42;;;;;;;96.65;26.50;;;10.70;99.90;;;;;;5007554;28;20042;-88
2022/12/23 13:00:17;;;;;;;109.20;27.63;;;10.80;99.90;;;;;;4970329;28;20062;-85
2022/12/23 13:03:24;;;;;;;113.63;27.90;;;10.70;99.90;;;;;;4985147;28;20022;-87
2022/12/23 13:05:55;;;;;;;94.05;25.48;;;10.70;99.90;;;;;;4985671;28;20065;-85
2022/12/23 13:08:36;;;;;;;125.47;28.52;;;10.70;99.90;;;;;;4979386;28;20114;-85
2022/12/23 13:11:02;;;;;;;;;;;10.70;99.90;;;;;;4977213;28;20110;-85
2022/12/23 13:13:53;;;;;;;92.65;24.92;;;10.70;99.90;;;;;;4987801;28;20357;-86
2022/12/23 13:16:39;;;;;;;92.82;26.35;;;10.70;99.90;;;;;;4990010;28;20019;-86